sensor_id;sensor_type;location;lat;lon;timestamp;P1;durP1;ratioP1;P2;durP2;ratioP2
17985;SDS011;9118;48.122;11.546;2022-09-09T00:00:40;2.57;;;2.13;;
17985;SDS011;9118;48.122;11.546;2022-09-09T00:03:16;3.43;;;2.60;;
17985;SDS011;9118;48.122;11.546;2022-09-09T00:05:55;4.93;;;2.57;;
17985;SDS011;9118;48.122;11.546;2022-09-09T00:08:33;3.53;;;2.60;;
17985;SDS011;9118;48.122;11.546;2022-09-09T00:11:07;4.83;;;2.90;;
17985;SDS011;9118;48.122;11.546;2022-09-09T00:13:41;3.23;;;2.57;;
17985;SDS011;9118;48.122;11.546;2022-09-09T00:16:15;4.37;;;2.80;;
17985;SDS011;9118;48.122;11.546;2022-09-09T00:18:50;3.53;;;2.30;;
17985;SDS011;9118;48.122;11.546;2022-09-09T00:21:25;3.57;;;2.80;;
17985;SDS011;9118;48.122;11.546;2022-09-09T00:24:09;3.17;;;2.27;;
17985;SDS011;9118;48.122;11.546;2022-09-09T00:26:45;2.50;;;2.20;;
17985;SDS011;9118;48.122;11.546;2022-09-09T00:29:20;2.47;;;2.27;;
17985;SDS011;9118;48.122;11.546;2022-09-09T00:31:59;2.63;;;2.43;;
17985;SDS011;9118;48.122;11.546;2022-09-09T00:34:39;3.23;;;2.60;;
17985;SDS011;9118;48.122;11.546;2022-09-09T00:37:10;3.37;;;2.50;;
17985;SDS011;9118;48.122;11.546;2022-09-09T00:39:41;4.30;;;2.47;;
17985;SDS011;9118;48.122;11.546;2022-09-09T00:42:13;4.27;;;2.50;;
17985;SDS011;9118;48.122;11.546;2022-09-09T00:45:02;3.23;;;2.53;;
17985;SDS011;9118;48.122;11.546;2022-09-09T00:47:45;4.20;;;2.80;;
17985;SDS011;9118;48.122;11.546;2022-09-09T00:53:12;2.83;;;2.50;;
17985;SDS011;9118;48.122;11.546;2022-09-09T00:55:52;4.60;;;3.03;;
17985;SDS011;9118;48.122;11.546;2022-09-09T00:58:26;7.03;;;4.10;;
17985;SDS011;9118;48.122;11.546;2022-09-09T01:01:01;5.50;;;3.27;;
17985;SDS011;9118;48.122;11.546;2022-09-09T01:03:34;6.33;;;3.83;;
17985;SDS011;9118;48.122;11.546;2022-09-09T01:06:17;4.50;;;3.43;;
17985;SDS011;9118;48.122;11.546;2022-09-09T01:08:56;6.50;;;3.30;;
17985;SDS011;9118;48.122;11.546;2022-09-09T01:11:35;5.47;;;3.70;;
17985;SDS011;9118;48.122;11.546;2022-09-09T01:14:14;6.00;;;3.73;;
17985;SDS011;9118;48.122;11.546;2022-09-09T01:16:53;7.17;;;3.60;;
17985;SDS011;9118;48.122;11.546;2022-09-09T01:19:27;4.13;;;3.33;;
17985;SDS011;9118;48.122;11.546;2022-09-09T01:22:13;5.57;;;3.10;;
17985;SDS011;9118;48.122;11.546;2022-09-09T01:24:51;6.87;;;2.80;;
17985;SDS011;9118;48.122;11.546;2022-09-09T01:27:40;3.13;;;2.40;;
17985;SDS011;9118;48.122;11.546;2022-09-09T01:30:10;4.80;;;2.20;;
17985;SDS011;9118;48.122;11.546;2022-09-09T01:32:40;2.67;;;2.30;;
17985;SDS011;9118;48.122;11.546;2022-09-09T01:35:10;2.47;;;2.23;;
17985;SDS011;9118;48.122;11.546;2022-09-09T01:37:39;3.70;;;2.00;;
17985;SDS011;9118;48.122;11.546;2022-09-09T01:40:07;3.50;;;2.20;;
17985;SDS011;9118;48.122;11.546;2022-09-09T01:42:35;2.13;;;1.93;;
17985;SDS011;9118;48.122;11.546;2022-09-09T01:45:09;2.43;;;2.23;;
17985;SDS011;9118;48.122;11.546;2022-09-09T01:47:36;3.57;;;2.10;;
17985;SDS011;9118;48.122;11.546;2022-09-09T01:50:04;2.93;;;2.30;;
17985;SDS011;9118;48.122;11.546;2022-09-09T01:52:33;2.50;;;2.20;;
17985;SDS011;9118;48.122;11.546;2022-09-09T01:55:03;3.03;;;2.40;;
17985;SDS011;9118;48.122;11.546;2022-09-09T01:57:33;2.53;;;2.33;;
17985;SDS011;9118;48.122;11.546;2022-09-09T02:00:09;5.53;;;2.43;;
17985;SDS011;9118;48.122;11.546;2022-09-09T02:02:39;2.67;;;2.27;;
17985;SDS011;9118;48.122;11.546;2022-09-09T02:05:16;5.03;;;2.50;;
17985;SDS011;9118;48.122;11.546;2022-09-09T02:07:53;3.30;;;2.33;;
17985;SDS011;9118;48.122;11.546;2022-09-09T02:10:29;5.47;;;2.40;;
17985;SDS011;9118;48.122;11.546;2022-09-09T02:13:01;3.70;;;2.20;;
17985;SDS011;9118;48.122;11.546;2022-09-09T02:15:34;3.20;;;2.40;;
17985;SDS011;9118;48.122;11.546;2022-09-09T02:18:10;3.67;;;2.30;;
17985;SDS011;9118;48.122;11.546;2022-09-09T02:20:41;5.27;;;2.50;;
17985;SDS011;9118;48.122;11.546;2022-09-09T02:23:11;2.87;;;2.67;;
17985;SDS011;9118;48.122;11.546;2022-09-09T02:25:40;4.60;;;2.30;;
17985;SDS011;9118;48.122;11.546;2022-09-09T02:28:16;3.77;;;2.33;;
17985;SDS011;9118;48.122;11.546;2022-09-09T02:30:48;3.17;;;2.30;;
17985;SDS011;9118;48.122;11.546;2022-09-09T02:33:20;3.07;;;2.43;;
17985;SDS011;9118;48.122;11.546;2022-09-09T02:35:49;2.17;;;1.97;;
17985;SDS011;9118;48.122;11.546;2022-09-09T02:38:18;2.63;;;2.20;;
17985;SDS011;9118;48.122;11.546;2022-09-09T02:40:49;3.17;;;2.10;;
17985;SDS011;9118;48.122;11.546;2022-09-09T02:43:16;3.40;;;2.30;;
17985;SDS011;9118;48.122;11.546;2022-09-09T02:45:46;2.90;;;2.30;;
17985;SDS011;9118;48.122;11.546;2022-09-09T02:48:20;2.40;;;2.20;;
17985;SDS011;9118;48.122;11.546;2022-09-09T02:50:54;2.47;;;1.97;;
17985;SDS011;9118;48.122;11.546;2022-09-09T02:53:29;2.10;;;1.90;;
17985;SDS011;9118;48.122;11.546;2022-09-09T02:56:05;2.20;;;2.00;;
17985;SDS011;9118;48.122;11.546;2022-09-09T02:58:40;3.07;;;2.20;;
17985;SDS011;9118;48.122;11.546;2022-09-09T03:01:09;2.30;;;2.10;;
17985;SDS011;9118;48.122;11.546;2022-09-09T03:03:36;4.33;;;2.37;;
17985;SDS011;9118;48.122;11.546;2022-09-09T03:06:04;2.40;;;2.20;;
17985;SDS011;9118;48.122;11.546;2022-09-09T03:08:31;4.23;;;2.20;;
17985;SDS011;9118;48.122;11.546;2022-09-09T03:10:58;2.07;;;1.97;;
17985;SDS011;9118;48.122;11.546;2022-09-09T03:13:26;3.33;;;2.17;;
17985;SDS011;9118;48.122;11.546;2022-09-09T03:15:54;4.87;;;2.33;;
17985;SDS011;9118;48.122;11.546;2022-09-09T03:18:22;2.40;;;2.20;;
17985;SDS011;9118;48.122;11.546;2022-09-09T03:20:50;3.43;;;2.60;;
17985;SDS011;9118;48.122;11.546;2022-09-09T03:23:20;3.53;;;2.10;;
17985;SDS011;9118;48.122;11.546;2022-09-09T03:25:49;2.13;;;1.80;;
17985;SDS011;9118;48.122;11.546;2022-09-09T03:28:17;3.47;;;2.20;;
17985;SDS011;9118;48.122;11.546;2022-09-09T03:30:45;3.63;;;2.20;;
17985;SDS011;9118;48.122;11.546;2022-09-09T03:33:13;3.83;;;2.10;;
17985;SDS011;9118;48.122;11.546;2022-09-09T03:35:46;6.43;;;2.43;;
17985;SDS011;9118;48.122;11.546;2022-09-09T03:38:13;2.60;;;2.30;;
17985;SDS011;9118;48.122;11.546;2022-09-09T03:40:47;2.17;;;1.97;;
17985;SDS011;9118;48.122;11.546;2022-09-09T03:43:16;3.87;;;2.40;;
17985;SDS011;9118;48.122;11.546;2022-09-09T03:45:45;6.33;;;2.17;;
17985;SDS011;9118;48.122;11.546;2022-09-09T03:48:13;3.00;;;2.40;;
17985;SDS011;9118;48.122;11.546;2022-09-09T03:50:43;4.50;;;2.50;;
17985;SDS011;9118;48.122;11.546;2022-09-09T03:53:13;2.47;;;2.20;;
17985;SDS011;9118;48.122;11.546;2022-09-09T03:55:43;5.47;;;2.50;;
17985;SDS011;9118;48.122;11.546;2022-09-09T03:58:10;2.47;;;2.30;;
17985;SDS011;9118;48.122;11.546;2022-09-09T04:00:39;3.40;;;2.40;;
17985;SDS011;9118;48.122;11.546;2022-09-09T04:03:10;2.20;;;2.00;;
17985;SDS011;9118;48.122;11.546;2022-09-09T04:05:39;3.20;;;2.13;;
17985;SDS011;9118;48.122;11.546;2022-09-09T04:08:08;2.57;;;2.20;;
17985;SDS011;9118;48.122;11.546;2022-09-09T04:10:36;2.20;;;2.00;;
17985;SDS011;9118;48.122;11.546;2022-09-09T04:13:04;2.53;;;2.10;;
17985;SDS011;9118;48.122;11.546;2022-09-09T04:15:33;2.13;;;2.00;;
17985;SDS011;9118;48.122;11.546;2022-09-09T04:18:01;3.17;;;2.43;;
17985;SDS011;9118;48.122;11.546;2022-09-09T04:20:28;2.33;;;2.20;;
17985;SDS011;9118;48.122;11.546;2022-09-09T04:22:55;6.87;;;2.47;;
17985;SDS011;9118;48.122;11.546;2022-09-09T04:25:25;2.47;;;2.27;;
17985;SDS011;9118;48.122;11.546;2022-09-09T04:27:53;3.93;;;2.47;;
17985;SDS011;9118;48.122;11.546;2022-09-09T04:30:21;3.20;;;2.10;;
17985;SDS011;9118;48.122;11.546;2022-09-09T04:32:49;5.17;;;2.13;;
17985;SDS011;9118;48.122;11.546;2022-09-09T04:35:16;3.67;;;2.20;;
17985;SDS011;9118;48.122;11.546;2022-09-09T04:37:45;3.17;;;2.30;;
17985;SDS011;9118;48.122;11.546;2022-09-09T04:40:13;4.63;;;2.67;;
17985;SDS011;9118;48.122;11.546;2022-09-09T04:42:42;4.47;;;2.80;;
17985;SDS011;9118;48.122;11.546;2022-09-09T04:45:09;2.63;;;2.27;;
17985;SDS011;9118;48.122;11.546;2022-09-09T04:47:38;6.73;;;2.40;;
17985;SDS011;9118;48.122;11.546;2022-09-09T04:50:06;3.47;;;3.00;;
17985;SDS011;9118;48.122;11.546;2022-09-09T04:52:34;4.83;;;2.70;;
17985;SDS011;9118;48.122;11.546;2022-09-09T04:55:02;3.13;;;2.37;;
17985;SDS011;9118;48.122;11.546;2022-09-09T04:57:29;2.37;;;2.17;;
17985;SDS011;9118;48.122;11.546;2022-09-09T05:00:00;5.43;;;4.23;;
17985;SDS011;9118;48.122;11.546;2022-09-09T05:02:29;2.43;;;2.17;;
17985;SDS011;9118;48.122;11.546;2022-09-09T05:04:57;3.07;;;2.63;;
17985;SDS011;9118;48.122;11.546;2022-09-09T05:07:26;4.00;;;2.40;;
17985;SDS011;9118;48.122;11.546;2022-09-09T05:09:54;3.63;;;2.63;;
17985;SDS011;9118;48.122;11.546;2022-09-09T05:12:21;6.00;;;3.40;;
17985;SDS011;9118;48.122;11.546;2022-09-09T05:14:49;3.00;;;2.50;;
17985;SDS011;9118;48.122;11.546;2022-09-09T05:17:18;2.50;;;2.30;;
17985;SDS011;9118;48.122;11.546;2022-09-09T05:19:46;2.70;;;2.50;;
17985;SDS011;9118;48.122;11.546;2022-09-09T05:22:17;3.57;;;2.50;;
17985;SDS011;9118;48.122;11.546;2022-09-09T05:24:46;4.47;;;2.60;;
17985;SDS011;9118;48.122;11.546;2022-09-09T05:27:15;3.37;;;2.60;;
17985;SDS011;9118;48.122;11.546;2022-09-09T05:29:43;3.77;;;2.60;;
17985;SDS011;9118;48.122;11.546;2022-09-09T05:32:10;3.13;;;2.30;;
17985;SDS011;9118;48.122;11.546;2022-09-09T05:34:40;4.87;;;2.70;;
17985;SDS011;9118;48.122;11.546;2022-09-09T05:37:07;3.90;;;2.80;;
17985;SDS011;9118;48.122;11.546;2022-09-09T05:39:34;5.43;;;2.43;;
17985;SDS011;9118;48.122;11.546;2022-09-09T05:42:03;5.27;;;3.10;;
17985;SDS011;9118;48.122;11.546;2022-09-09T05:44:30;3.60;;;2.60;;
17985;SDS011;9118;48.122;11.546;2022-09-09T05:46:58;4.90;;;2.80;;
17985;SDS011;9118;48.122;11.546;2022-09-09T05:49:25;2.40;;;2.20;;
17985;SDS011;9118;48.122;11.546;2022-09-09T05:51:53;2.60;;;2.07;;
17985;SDS011;9118;48.122;11.546;2022-09-09T05:54:20;4.03;;;2.53;;
17985;SDS011;9118;48.122;11.546;2022-09-09T05:56:48;4.37;;;2.77;;
17985;SDS011;9118;48.122;11.546;2022-09-09T05:59:17;7.03;;;5.40;;
17985;SDS011;9118;48.122;11.546;2022-09-09T06:01:44;5.20;;;3.10;;
17985;SDS011;9118;48.122;11.546;2022-09-09T06:04:12;6.70;;;2.70;;
17985;SDS011;9118;48.122;11.546;2022-09-09T06:06:39;3.60;;;2.10;;
17985;SDS011;9118;48.122;11.546;2022-09-09T06:09:09;2.67;;;2.10;;
17985;SDS011;9118;48.122;11.546;2022-09-09T06:11:37;5.87;;;2.30;;
17985;SDS011;9118;48.122;11.546;2022-09-09T06:14:05;2.40;;;2.20;;
17985;SDS011;9118;48.122;11.546;2022-09-09T06:16:33;4.20;;;2.20;;
17985;SDS011;9118;48.122;11.546;2022-09-09T06:19:02;2.30;;;1.97;;
17985;SDS011;9118;48.122;11.546;2022-09-09T06:21:30;3.40;;;2.17;;
17985;SDS011;9118;48.122;11.546;2022-09-09T06:23:59;3.10;;;2.43;;
17985;SDS011;9118;48.122;11.546;2022-09-09T06:26:29;2.10;;;1.90;;
17985;SDS011;9118;48.122;11.546;2022-09-09T06:28:57;2.00;;;1.80;;
17985;SDS011;9118;48.122;11.546;2022-09-09T06:31:25;4.93;;;1.90;;
17985;SDS011;9118;48.122;11.546;2022-09-09T06:33:56;1.77;;;1.63;;
17985;SDS011;9118;48.122;11.546;2022-09-09T06:36:24;2.20;;;2.00;;
17985;SDS011;9118;48.122;11.546;2022-09-09T06:38:54;4.13;;;2.10;;
17985;SDS011;9118;48.122;11.546;2022-09-09T06:41:23;1.93;;;1.80;;
17985;SDS011;9118;48.122;11.546;2022-09-09T06:43:53;3.20;;;1.77;;
17985;SDS011;9118;48.122;11.546;2022-09-09T06:46:22;3.13;;;1.90;;
17985;SDS011;9118;48.122;11.546;2022-09-09T06:48:52;3.00;;;1.80;;
17985;SDS011;9118;48.122;11.546;2022-09-09T06:51:22;4.00;;;2.30;;
17985;SDS011;9118;48.122;11.546;2022-09-09T06:53:51;4.83;;;4.03;;
17985;SDS011;9118;48.122;11.546;2022-09-09T06:56:20;2.67;;;2.03;;
17985;SDS011;9118;48.122;11.546;2022-09-09T06:58:49;2.07;;;1.80;;
17985;SDS011;9118;48.122;11.546;2022-09-09T07:01:18;2.40;;;2.20;;
17985;SDS011;9118;48.122;11.546;2022-09-09T07:03:47;5.43;;;2.43;;
17985;SDS011;9118;48.122;11.546;2022-09-09T07:06:17;3.20;;;2.00;;
17985;SDS011;9118;48.122;11.546;2022-09-09T07:08:48;1.70;;;1.60;;
17985;SDS011;9118;48.122;11.546;2022-09-09T07:11:17;4.30;;;1.70;;
17985;SDS011;9118;48.122;11.546;2022-09-09T07:13:45;2.87;;;2.40;;
17985;SDS011;9118;48.122;11.546;2022-09-09T07:16:13;3.40;;;2.13;;
17985;SDS011;9118;48.122;11.546;2022-09-09T07:18:47;3.90;;;2.20;;
17985;SDS011;9118;48.122;11.546;2022-09-09T07:21:15;3.47;;;2.00;;
17985;SDS011;9118;48.122;11.546;2022-09-09T07:23:43;2.13;;;1.93;;
17985;SDS011;9118;48.122;11.546;2022-09-09T07:26:12;5.17;;;2.13;;
17985;SDS011;9118;48.122;11.546;2022-09-09T07:28:41;2.97;;;2.13;;
17985;SDS011;9118;48.122;11.546;2022-09-09T07:31:23;2.30;;;1.80;;
17985;SDS011;9118;48.122;11.546;2022-09-09T07:33:57;2.27;;;1.70;;
17985;SDS011;9118;48.122;11.546;2022-09-09T07:36:35;2.20;;;2.00;;
17985;SDS011;9118;48.122;11.546;2022-09-09T07:39:05;4.30;;;1.60;;
17985;SDS011;9118;48.122;11.546;2022-09-09T07:41:35;2.30;;;1.87;;
17985;SDS011;9118;48.122;11.546;2022-09-09T07:44:04;2.87;;;1.80;;
17985;SDS011;9118;48.122;11.546;2022-09-09T07:46:33;2.17;;;1.93;;
17985;SDS011;9118;48.122;11.546;2022-09-09T07:49:03;5.33;;;2.03;;
17985;SDS011;9118;48.122;11.546;2022-09-09T07:51:30;2.50;;;2.10;;
17985;SDS011;9118;48.122;11.546;2022-09-09T07:54:00;3.47;;;2.20;;
17985;SDS011;9118;48.122;11.546;2022-09-09T07:56:30;5.13;;;3.03;;
17985;SDS011;9118;48.122;11.546;2022-09-09T07:58:58;2.20;;;2.00;;
17985;SDS011;9118;48.122;11.546;2022-09-09T08:01:27;2.77;;;1.90;;
17985;SDS011;9118;48.122;11.546;2022-09-09T08:04:05;8.40;;;2.63;;
17985;SDS011;9118;48.122;11.546;2022-09-09T08:06:34;2.87;;;2.67;;
17985;SDS011;9118;48.122;11.546;2022-09-09T08:09:05;5.03;;;2.30;;
17985;SDS011;9118;48.122;11.546;2022-09-09T08:11:39;6.30;;;3.80;;
17985;SDS011;9118;48.122;11.546;2022-09-09T08:14:07;4.73;;;2.63;;
17985;SDS011;9118;48.122;11.546;2022-09-09T08:16:35;9.00;;;2.60;;
17985;SDS011;9118;48.122;11.546;2022-09-09T08:21:48;2.57;;;2.03;;
17985;SDS011;9118;48.122;11.546;2022-09-09T08:24:16;2.93;;;1.93;;
17985;SDS011;9118;48.122;11.546;2022-09-09T08:26:45;3.23;;;2.53;;
17985;SDS011;9118;48.122;11.546;2022-09-09T08:29:14;4.83;;;1.97;;
17985;SDS011;9118;48.122;11.546;2022-09-09T08:31:43;1.97;;;1.87;;
17985;SDS011;9118;48.122;11.546;2022-09-09T08:34:12;5.30;;;2.40;;
17985;SDS011;9118;48.122;11.546;2022-09-09T08:36:46;7.80;;;3.67;;
17985;SDS011;9118;48.122;11.546;2022-09-09T08:39:16;2.87;;;2.00;;
17985;SDS011;9118;48.122;11.546;2022-09-09T08:41:57;2.20;;;2.00;;
17985;SDS011;9118;48.122;11.546;2022-09-09T08:45:12;2.67;;;2.20;;
17985;SDS011;9118;48.122;11.546;2022-09-09T08:51:01;5.83;;;2.13;;
17985;SDS011;9118;48.122;11.546;2022-09-09T08:53:48;2.10;;;1.90;;
17985;SDS011;9118;48.122;11.546;2022-09-09T08:56:22;3.53;;;2.40;;
17985;SDS011;9118;48.122;11.546;2022-09-09T08:58:52;3.73;;;1.87;;
17985;SDS011;9118;48.122;11.546;2022-09-09T09:01:41;2.17;;;2.03;;
17985;SDS011;9118;48.122;11.546;2022-09-09T09:04:52;3.83;;;1.90;;
17985;SDS011;9118;48.122;11.546;2022-09-09T09:07:32;3.73;;;2.20;;
17985;SDS011;9118;48.122;11.546;2022-09-09T09:10:14;3.80;;;2.43;;
17985;SDS011;9118;48.122;11.546;2022-09-09T09:12:49;2.43;;;2.03;;
17985;SDS011;9118;48.122;11.546;2022-09-09T09:15:17;3.70;;;2.97;;
17985;SDS011;9118;48.122;11.546;2022-09-09T09:17:49;2.37;;;1.80;;
17985;SDS011;9118;48.122;11.546;2022-09-09T09:20:21;3.10;;;2.37;;
17985;SDS011;9118;48.122;11.546;2022-09-09T09:22:59;2.33;;;2.10;;
17985;SDS011;9118;48.122;11.546;2022-09-09T09:25:33;4.20;;;2.37;;
17985;SDS011;9118;48.122;11.546;2022-09-09T09:28:10;4.10;;;2.40;;
17985;SDS011;9118;48.122;11.546;2022-09-09T09:30:42;3.30;;;2.20;;
17985;SDS011;9118;48.122;11.546;2022-09-09T09:33:15;6.13;;;2.33;;
17985;SDS011;9118;48.122;11.546;2022-09-09T09:35:48;3.60;;;2.50;;
17985;SDS011;9118;48.122;11.546;2022-09-09T09:38:29;4.20;;;2.70;;
17985;SDS011;9118;48.122;11.546;2022-09-09T09:41:10;4.63;;;3.00;;
17985;SDS011;9118;48.122;11.546;2022-09-09T09:43:40;3.23;;;2.60;;
17985;SDS011;9118;48.122;11.546;2022-09-09T09:46:18;4.57;;;2.47;;
17985;SDS011;9118;48.122;11.546;2022-09-09T09:49:01;4.20;;;2.53;;
17985;SDS011;9118;48.122;11.546;2022-09-09T09:51:30;2.93;;;2.60;;
17985;SDS011;9118;48.122;11.546;2022-09-09T09:54:08;5.03;;;2.67;;
17985;SDS011;9118;48.122;11.546;2022-09-09T09:56:46;3.47;;;2.30;;
17985;SDS011;9118;48.122;11.546;2022-09-09T09:59:33;4.67;;;2.20;;
17985;SDS011;9118;48.122;11.546;2022-09-09T10:02:16;2.50;;;2.30;;
17985;SDS011;9118;48.122;11.546;2022-09-09T10:05:00;6.83;;;2.30;;
17985;SDS011;9118;48.122;11.546;2022-09-09T10:07:30;2.60;;;2.40;;
17985;SDS011;9118;48.122;11.546;2022-09-09T10:10:04;4.67;;;2.53;;
17985;SDS011;9118;48.122;11.546;2022-09-09T10:12:43;5.37;;;4.40;;
17985;SDS011;9118;48.122;11.546;2022-09-09T10:15:29;5.33;;;3.80;;
17985;SDS011;9118;48.122;11.546;2022-09-09T10:18:05;3.63;;;2.97;;
17985;SDS011;9118;48.122;11.546;2022-09-09T10:20:45;5.03;;;3.07;;
17985;SDS011;9118;48.122;11.546;2022-09-09T10:23:43;4.40;;;2.40;;
17985;SDS011;9118;48.122;11.546;2022-09-09T10:26:27;3.97;;;2.50;;
17985;SDS011;9118;48.122;11.546;2022-09-09T10:32:08;3.33;;;2.30;;
17985;SDS011;9118;48.122;11.546;2022-09-09T10:34:52;2.27;;;2.07;;
17985;SDS011;9118;48.122;11.546;2022-09-09T10:37:35;3.90;;;2.60;;
17985;SDS011;9118;48.122;11.546;2022-09-09T10:40:48;4.03;;;2.27;;
17985;SDS011;9118;48.122;11.546;2022-09-09T10:44:23;2.07;;;1.87;;
17985;SDS011;9118;48.122;11.546;2022-09-09T10:53:17;4.60;;;2.40;;
17985;SDS011;9118;48.122;11.546;2022-09-09T10:56:06;3.10;;;1.80;;
17985;SDS011;9118;48.122;11.546;2022-09-09T10:59:10;3.77;;;2.23;;
17985;SDS011;9118;48.122;11.546;2022-09-09T11:01:43;2.93;;;1.60;;
17985;SDS011;9118;48.122;11.546;2022-09-09T11:04:15;1.87;;;1.70;;
17985;SDS011;9118;48.122;11.546;2022-09-09T11:06:48;1.70;;;1.60;;
17985;SDS011;9118;48.122;11.546;2022-09-09T11:09:22;3.27;;;1.67;;
17985;SDS011;9118;48.122;11.546;2022-09-09T11:11:52;5.50;;;1.83;;
17985;SDS011;9118;48.122;11.546;2022-09-09T11:14:22;2.72;;;2.10;;
17985;SDS011;9118;48.122;11.546;2022-09-09T11:16:56;2.63;;;1.80;;
17985;SDS011;9118;48.122;11.546;2022-09-09T11:19:30;2.40;;;1.90;;
17985;SDS011;9118;48.122;11.546;2022-09-09T11:22:12;2.47;;;1.70;;
17985;SDS011;9118;48.122;11.546;2022-09-09T11:24:51;2.87;;;1.70;;
17985;SDS011;9118;48.122;11.546;2022-09-09T11:27:28;2.20;;;2.00;;
17985;SDS011;9118;48.122;11.546;2022-09-09T11:30:03;4.03;;;1.70;;
17985;SDS011;9118;48.122;11.546;2022-09-09T11:35:38;2.30;;;1.40;;
17985;SDS011;9118;48.122;11.546;2022-09-09T11:44:35;4.37;;;1.70;;
17985;SDS011;9118;48.122;11.546;2022-09-09T11:47:14;1.87;;;1.30;;
17985;SDS011;9118;48.122;11.546;2022-09-09T11:49:54;2.07;;;1.40;;
17985;SDS011;9118;48.122;11.546;2022-09-09T11:52:36;1.40;;;1.30;;
17985;SDS011;9118;48.122;11.546;2022-09-09T11:55:10;2.60;;;2.40;;
17985;SDS011;9118;48.122;11.546;2022-09-09T11:57:57;4.70;;;2.53;;
17985;SDS011;9118;48.122;11.546;2022-09-09T12:06:11;3.00;;;1.42;;
17985;SDS011;9118;48.122;11.546;2022-09-09T12:08:57;4.50;;;1.40;;
17985;SDS011;9118;48.122;11.546;2022-09-09T12:12:04;4.55;;;1.67;;
17985;SDS011;9118;48.122;11.546;2022-09-09T12:14:36;1.40;;;1.13;;
17985;SDS011;9118;48.122;11.546;2022-09-09T12:17:17;2.63;;;1.40;;
17985;SDS011;9118;48.122;11.546;2022-09-09T12:19:47;1.23;;;1.13;;
17985;SDS011;9118;48.122;11.546;2022-09-09T12:22:16;3.17;;;1.52;;
17985;SDS011;9118;48.122;11.546;2022-09-09T12:25:09;1.77;;;1.40;;
17985;SDS011;9118;48.122;11.546;2022-09-09T12:27:50;2.13;;;1.20;;
17985;SDS011;9118;48.122;11.546;2022-09-09T12:30:32;1.23;;;0.97;;
17985;SDS011;9118;48.122;11.546;2022-09-09T12:33:08;2.42;;;1.30;;
17985;SDS011;9118;48.122;11.546;2022-09-09T12:35:41;1.50;;;1.30;;
17985;SDS011;9118;48.122;11.546;2022-09-09T12:38:16;1.60;;;1.50;;
17985;SDS011;9118;48.122;11.546;2022-09-09T12:40:54;1.10;;;1.02;;
17985;SDS011;9118;48.122;11.546;2022-09-09T12:43:25;2.75;;;2.08;;
17985;SDS011;9118;48.122;11.546;2022-09-09T12:45:55;2.17;;;1.30;;
17985;SDS011;9118;48.122;11.546;2022-09-09T12:48:28;2.90;;;1.50;;
17985;SDS011;9118;48.122;11.546;2022-09-09T12:50:59;1.30;;;1.20;;
17985;SDS011;9118;48.122;11.546;2022-09-09T12:53:30;3.50;;;2.08;;
17985;SDS011;9118;48.122;11.546;2022-09-09T12:56:00;2.67;;;1.20;;
17985;SDS011;9118;48.122;11.546;2022-09-09T12:58:32;2.42;;;1.40;;
17985;SDS011;9118;48.122;11.546;2022-09-09T13:01:02;3.13;;;2.73;;
17985;SDS011;9118;48.122;11.546;2022-09-09T13:03:31;1.40;;;1.30;;
17985;SDS011;9118;48.122;11.546;2022-09-09T13:06:10;1.40;;;1.27;;
17985;SDS011;9118;48.122;11.546;2022-09-09T13:08:41;1.50;;;1.40;;
17985;SDS011;9118;48.122;11.546;2022-09-09T13:11:17;2.20;;;1.30;;
17985;SDS011;9118;48.122;11.546;2022-09-09T13:13:55;1.40;;;1.30;;
17985;SDS011;9118;48.122;11.546;2022-09-09T13:16:42;1.35;;;1.17;;
17985;SDS011;9118;48.122;11.546;2022-09-09T13:19:23;1.60;;;1.50;;
17985;SDS011;9118;48.122;11.546;2022-09-09T13:22:00;1.80;;;1.60;;
17985;SDS011;9118;48.122;11.546;2022-09-09T13:25:00;1.73;;;1.20;;
17985;SDS011;9118;48.122;11.546;2022-09-09T13:27:38;1.80;;;1.17;;
17985;SDS011;9118;48.122;11.546;2022-09-09T13:30:25;1.73;;;1.10;;
17985;SDS011;9118;48.122;11.546;2022-09-09T13:33:03;0.90;;;0.90;;
17985;SDS011;9118;48.122;11.546;2022-09-09T13:35:46;2.55;;;1.00;;
17985;SDS011;9118;48.122;11.546;2022-09-09T13:38:22;1.53;;;1.03;;
17985;SDS011;9118;48.122;11.546;2022-09-09T13:41:04;1.37;;;1.10;;
17985;SDS011;9118;48.122;11.546;2022-09-09T13:43:38;1.48;;;1.08;;
17985;SDS011;9118;48.122;11.546;2022-09-09T13:58:54;2.47;;;1.30;;
17985;SDS011;9118;48.122;11.546;2022-09-09T14:01:35;2.87;;;1.10;;
17985;SDS011;9118;48.122;11.546;2022-09-09T14:04:26;2.57;;;1.17;;
17985;SDS011;9118;48.122;11.546;2022-09-09T14:06:54;1.13;;;1.10;;
17985;SDS011;9118;48.122;11.546;2022-09-09T14:09:35;1.33;;;1.10;;
17985;SDS011;9118;48.122;11.546;2022-09-09T14:12:14;1.27;;;1.17;;
17985;SDS011;9118;48.122;11.546;2022-09-09T14:14:42;1.87;;;1.20;;
17985;SDS011;9118;48.122;11.546;2022-09-09T14:21:14;1.77;;;1.30;;
17985;SDS011;9118;48.122;11.546;2022-09-09T14:23:42;1.93;;;1.67;;
17985;SDS011;9118;48.122;11.546;2022-09-09T14:26:24;2.07;;;1.07;;
17985;SDS011;9118;48.122;11.546;2022-09-09T14:28:55;1.83;;;1.43;;
17985;SDS011;9118;48.122;11.546;2022-09-09T14:31:23;2.57;;;1.20;;
17985;SDS011;9118;48.122;11.546;2022-09-09T14:33:51;1.20;;;1.10;;
17985;SDS011;9118;48.122;11.546;2022-09-09T14:36:27;3.07;;;1.50;;
17985;SDS011;9118;48.122;11.546;2022-09-09T14:39:03;1.67;;;1.20;;
17985;SDS011;9118;48.122;11.546;2022-09-09T14:41:33;1.20;;;1.10;;
17985;SDS011;9118;48.122;11.546;2022-09-09T14:47:35;2.10;;;1.30;;
17985;SDS011;9118;48.122;11.546;2022-09-09T14:50:18;1.73;;;1.40;;
17985;SDS011;9118;48.122;11.546;2022-09-09T14:52:46;1.57;;;1.43;;
17985;SDS011;9118;48.122;11.546;2022-09-09T14:55:14;1.23;;;1.10;;
17985;SDS011;9118;48.122;11.546;2022-09-09T14:57:45;2.20;;;1.20;;
17985;SDS011;9118;48.122;11.546;2022-09-09T15:00:28;2.10;;;1.50;;
17985;SDS011;9118;48.122;11.546;2022-09-09T15:02:59;1.77;;;1.00;;
17985;SDS011;9118;48.122;11.546;2022-09-09T15:05:36;2.63;;;1.63;;
17985;SDS011;9118;48.122;11.546;2022-09-09T15:08:08;1.75;;;1.17;;
17985;SDS011;9118;48.122;11.546;2022-09-09T15:10:42;1.70;;;1.60;;
17985;SDS011;9118;48.122;11.546;2022-09-09T15:13:24;3.60;;;1.10;;
17985;SDS011;9118;48.122;11.546;2022-09-09T15:16:02;2.90;;;1.40;;
17985;SDS011;9118;48.122;11.546;2022-09-09T15:18:34;3.10;;;1.70;;
17985;SDS011;9118;48.122;11.546;2022-09-09T15:21:05;2.53;;;1.20;;
17985;SDS011;9118;48.122;11.546;2022-09-09T15:23:34;1.67;;;1.40;;
17985;SDS011;9118;48.122;11.546;2022-09-09T15:26:02;2.60;;;1.40;;
17985;SDS011;9118;48.122;11.546;2022-09-09T15:28:35;3.92;;;1.40;;
17985;SDS011;9118;48.122;11.546;2022-09-09T15:31:18;1.90;;;1.20;;
17985;SDS011;9118;48.122;11.546;2022-09-09T15:36:34;2.13;;;1.20;;
17985;SDS011;9118;48.122;11.546;2022-09-09T15:39:16;2.60;;;1.20;;
17985;SDS011;9118;48.122;11.546;2022-09-09T15:41:48;3.65;;;1.80;;
17985;SDS011;9118;48.122;11.546;2022-09-09T15:44:16;1.83;;;1.50;;
17985;SDS011;9118;48.122;11.546;2022-09-09T15:49:59;4.00;;;3.60;;
17985;SDS011;9118;48.122;11.546;2022-09-09T15:59:12;2.85;;;1.50;;
17985;SDS011;9118;48.122;11.546;2022-09-09T16:01:56;2.22;;;1.30;;
17985;SDS011;9118;48.122;11.546;2022-09-09T16:04:57;1.87;;;1.30;;
17985;SDS011;9118;48.122;11.546;2022-09-09T16:07:31;2.17;;;1.10;;
17985;SDS011;9118;48.122;11.546;2022-09-09T16:10:17;2.08;;;1.38;;
17985;SDS011;9118;48.122;11.546;2022-09-09T16:12:59;2.03;;;1.70;;
17985;SDS011;9118;48.122;11.546;2022-09-09T16:15:31;2.57;;;2.00;;
17985;SDS011;9118;48.122;11.546;2022-09-09T16:18:14;5.70;;;3.42;;
17985;SDS011;9118;48.122;11.546;2022-09-09T16:20:45;4.55;;;3.28;;
17985;SDS011;9118;48.122;11.546;2022-09-09T16:23:20;2.47;;;1.87;;
17985;SDS011;9118;48.122;11.546;2022-09-09T16:25:52;1.70;;;1.60;;
17985;SDS011;9118;48.122;11.546;2022-09-09T16:28:20;2.33;;;1.33;;
17985;SDS011;9118;48.122;11.546;2022-09-09T16:30:48;2.47;;;1.33;;
17985;SDS011;9118;48.122;11.546;2022-09-09T16:33:16;1.67;;;1.20;;